sensor_id;sensor_type;location;lat;lon;timestamp;pressure;altitude;pressure_sealevel;temperature;humidity
74403;BME280;62837;51.082;13.744;2023-01-06T00:01:28;100928.65;;;9.29;75.69
74403;BME280;62837;51.082;13.744;2023-01-06T00:03:59;100931.73;;;9.36;75.87
74403;BME280;62837;51.082;13.744;2023-01-06T00:06:31;100938.96;;;9.43;75.36
74403;BME280;62837;51.082;13.744;2023-01-06T00:09:04;100938.10;;;9.41;74.46
74403;BME280;62837;51.082;13.744;2023-01-06T00:11:34;100934.94;;;9.32;75.10
74403;BME280;62837;51.082;13.744;2023-01-06T00:14:06;100935.55;;;9.33;75.49
74403;BME280;62837;51.082;13.744;2023-01-06T00:16:37;100932.92;;;9.36;75.41
74403;BME280;62837;51.082;13.744;2023-01-06T00:19:09;100932.17;;;9.40;75.36
74403;BME280;62837;51.082;13.744;2023-01-06T00:21:40;100933.34;;;9.46;75.20
74403;BME280;62837;51.082;13.744;2023-01-06T00:24:11;100932.23;;;9.49;75.11
74403;BME280;62837;51.082;13.744;2023-01-06T00:26:42;100929.20;;;9.52;74.86
74403;BME280;62837;51.082;13.744;2023-01-06T00:29:12;100929.83;;;9.55;74.71
74403;BME280;62837;51.082;13.744;2023-01-06T00:31:43;100932.55;;;9.47;74.10
74403;BME280;62837;51.082;13.744;2023-01-06T00:34:14;100928.37;;;9.33;74.02
74403;BME280;62837;51.082;13.744;2023-01-06T00:36:45;100928.42;;;9.22;74.77
74403;BME280;62837;51.082;13.744;2023-01-06T00:39:16;100924.78;;;9.24;75.02
74403;BME280;62837;51.082;13.744;2023-01-06T00:41:48;100925.70;;;9.29;75.49
74403;BME280;62837;51.082;13.744;2023-01-06T00:44:36;100926.03;;;9.34;75.01
74403;BME280;62837;51.082;13.744;2023-01-06T00:47:09;100921.63;;;9.38;75.44
74403;BME280;62837;51.082;13.744;2023-01-06T00:49:40;100921.11;;;9.44;75.47
74403;BME280;62837;51.082;13.744;2023-01-06T00:52:11;100924.64;;;9.51;74.85
74403;BME280;62837;51.082;13.744;2023-01-06T00:54:42;100920.73;;;9.54;74.59
74403;BME280;62837;51.082;13.744;2023-01-06T00:57:13;100924.15;;;9.57;75.09
74403;BME280;62837;51.082;13.744;2023-01-06T00:59:43;100924.22;;;9.62;75.12
74403;BME280;62837;51.082;13.744;2023-01-06T01:02:14;100921.55;;;9.65;74.30
74403;BME280;62837;51.082;13.744;2023-01-06T01:04:45;100919.48;;;9.57;74.23
74403;BME280;62837;51.082;13.744;2023-01-06T01:07:17;100913.52;;;9.53;74.49
74403;BME280;62837;51.082;13.744;2023-01-06T01:09:48;100918.16;;;9.54;74.06
74403;BME280;62837;51.082;13.744;2023-01-06T01:12:19;100920.56;;;9.40;73.72
74403;BME280;62837;51.082;13.744;2023-01-06T01:14:51;100928.04;;;9.30;74.69
74403;BME280;62837;51.082;13.744;2023-01-06T01:17:24;100930.11;;;9.33;74.95
74403;BME280;62837;51.082;13.744;2023-01-06T01:19:56;100930.71;;;9.39;74.91
74403;BME280;62837;51.082;13.744;2023-01-06T01:22:30;100931.63;;;9.45;74.67
74403;BME280;62837;51.082;13.744;2023-01-06T01:25:02;100931.27;;;9.48;74.87
74403;BME280;62837;51.082;13.744;2023-01-06T01:27:33;100926.46;;;9.55;75.04
74403;BME280;62837;51.082;13.744;2023-01-06T01:30:05;100929.09;;;9.61;74.83
74403;BME280;62837;51.082;13.744;2023-01-06T01:32:35;100928.87;;;9.66;74.15
74403;BME280;62837;51.082;13.744;2023-01-06T01:35:07;100918.31;;;9.68;74.60
74403;BME280;62837;51.082;13.744;2023-01-06T01:37:40;100915.09;;;9.71;74.24
74403;BME280;62837;51.082;13.744;2023-01-06T01:40:12;100910.92;;;9.77;74.53
74403;BME280;62837;51.082;13.744;2023-01-06T01:42:43;100910.43;;;9.82;74.66
74403;BME280;62837;51.082;13.744;2023-01-06T01:45:22;100914.90;;;9.87;74.11
74403;BME280;62837;51.082;13.744;2023-01-06T01:47:56;100910.77;;;9.89;73.56
74403;BME280;62837;51.082;13.744;2023-01-06T01:50:33;100907.67;;;9.91;73.96
74403;BME280;62837;51.082;13.744;2023-01-06T01:53:07;100908.44;;;9.91;73.22
74403;BME280;62837;51.082;13.744;2023-01-06T01:55:40;100913.09;;;9.88;73.44
74403;BME280;62837;51.082;13.744;2023-01-06T01:58:12;100910.29;;;9.87;73.09
74403;BME280;62837;51.082;13.744;2023-01-06T02:00:44;100905.52;;;9.83;73.21
74403;BME280;62837;51.082;13.744;2023-01-06T02:03:16;100904.02;;;9.79;73.07
74403;BME280;62837;51.082;13.744;2023-01-06T02:05:47;100902.99;;;9.78;73.39
74403;BME280;62837;51.082;13.744;2023-01-06T02:08:27;100895.64;;;9.78;73.31
74403;BME280;62837;51.082;13.744;2023-01-06T02:11:02;100891.00;;;9.80;73.60
74403;BME280;62837;51.082;13.744;2023-01-06T02:13:34;100888.11;;;9.83;73.22
74403;BME280;62837;51.082;13.744;2023-01-06T02:16:20;100888.10;;;9.85;73.36
74403;BME280;62837;51.082;13.744;2023-01-06T02:19:01;100886.84;;;9.88;73.34
74403;BME280;62837;51.082;13.744;2023-01-06T02:21:50;100883.73;;;9.92;73.31
74403;BME280;62837;51.082;13.744;2023-01-06T02:25:01;100878.63;;;9.94;72.77
74403;BME280;62837;51.082;13.744;2023-01-06T02:31:38;100859.70;;;9.93;73.10
74403;BME280;62837;51.082;13.744;2023-01-06T02:34:18;100853.04;;;9.92;73.03
74403;BME280;62837;51.082;13.744;2023-01-06T02:36:57;100852.47;;;9.94;73.13
74403;BME280;62837;51.082;13.744;2023-01-06T02:39:39;100851.08;;;9.93;72.79
74403;BME280;62837;51.082;13.744;2023-01-06T02:42:19;100853.70;;;9.93;72.94
74403;BME280;62837;51.082;13.744;2023-01-06T02:44:52;100847.00;;;9.93;72.69
74403;BME280;62837;51.082;13.744;2023-01-06T02:47:31;100849.21;;;9.91;72.72
74403;BME280;62837;51.082;13.744;2023-01-06T02:50:10;100852.36;;;9.91;72.65
74403;BME280;62837;51.082;13.744;2023-01-06T02:52:48;100853.41;;;9.89;72.45
74403;BME280;62837;51.082;13.744;2023-01-06T02:55:31;100852.00;;;9.88;73.03
74403;BME280;62837;51.082;13.744;2023-01-06T02:58:09;100846.91;;;9.85;72.09
74403;BME280;62837;51.082;13.744;2023-01-06T03:00:46;100845.53;;;9.70;72.10
74403;BME280;62837;51.082;13.744;2023-01-06T03:03:22;100830.52;;;9.62;72.83
74403;BME280;62837;51.082;13.744;2023-01-06T03:06:01;100833.55;;;9.66;72.84
74403;BME280;62837;51.082;13.744;2023-01-06T03:08:34;100818.77;;;9.64;72.58
74403;BME280;62837;51.082;13.744;2023-01-06T03:11:05;100813.11;;;9.65;72.69
74403;BME280;62837;51.082;13.744;2023-01-06T03:13:41;100818.23;;;9.64;72.56
74403;BME280;62837;51.082;13.744;2023-01-06T03:16:16;100818.39;;;9.62;72.54
74403;BME280;62837;51.082;13.744;2023-01-06T03:18:48;100810.49;;;9.62;72.69
74403;BME280;62837;51.082;13.744;2023-01-06T03:21:23;100810.09;;;9.62;72.57
74403;BME280;62837;51.082;13.744;2023-01-06T03:23:55;100808.56;;;9.64;72.86
74403;BME280;62837;51.082;13.744;2023-01-06T03:26:26;100807.88;;;9.65;72.62
74403;BME280;62837;51.082;13.744;2023-01-06T03:28:57;100798.64;;;9.62;72.48
74403;BME280;62837;51.082;13.744;2023-01-06T03:31:33;100802.96;;;9.61;72.57
74403;BME280;62837;51.082;13.744;2023-01-06T03:34:12;100809.24;;;9.60;72.42
74403;BME280;62837;51.082;13.744;2023-01-06T03:36:52;100804.59;;;9.58;72.46
74403;BME280;62837;51.082;13.744;2023-01-06T03:39:33;100804.16;;;9.59;72.84
74403;BME280;62837;51.082;13.744;2023-01-06T03:42:18;100804.66;;;9.59;72.57
74403;BME280;62837;51.082;13.744;2023-01-06T03:45:17;100793.08;;;9.57;72.44
74403;BME280;62837;51.082;13.744;2023-01-06T03:47:56;100793.81;;;9.55;72.41
74403;BME280;62837;51.082;13.744;2023-01-06T03:50:35;100784.98;;;9.52;72.28
74403;BME280;62837;51.082;13.744;2023-01-06T03:53:15;100781.99;;;9.52;72.32
74403;BME280;62837;51.082;13.744;2023-01-06T03:55:52;100779.21;;;9.47;72.20
74403;BME280;62837;51.082;13.744;2023-01-06T03:58:27;100781.77;;;9.44;72.12
74403;BME280;62837;51.082;13.744;2023-01-06T04:00:59;100776.38;;;9.43;72.68
74403;BME280;62837;51.082;13.744;2023-01-06T04:03:31;100775.12;;;9.43;72.26
74403;BME280;62837;51.082;13.744;2023-01-06T04:06:02;100768.54;;;9.41;72.39
74403;BME280;62837;51.082;13.744;2023-01-06T04:08:33;100772.98;;;9.40;72.39
74403;BME280;62837;51.082;13.744;2023-01-06T04:11:05;100765.98;;;9.44;72.64
74403;BME280;62837;51.082;13.744;2023-01-06T04:13:37;100766.46;;;9.49;72.71
74403;BME280;62837;51.082;13.744;2023-01-06T04:16:08;100764.97;;;9.56;72.79
74403;BME280;62837;51.082;13.744;2023-01-06T04:18:39;100763.89;;;9.60;72.45
74403;BME280;62837;51.082;13.744;2023-01-06T04:21:09;100767.80;;;9.60;72.24
74403;BME280;62837;51.082;13.744;2023-01-06T04:23:40;100766.44;;;9.59;71.87
74403;BME280;62837;51.082;13.744;2023-01-06T04:26:12;100759.86;;;9.54;71.86
74403;BME280;62837;51.082;13.744;2023-01-06T04:28:48;100761.41;;;9.51;71.74
74403;BME280;62837;51.082;13.744;2023-01-06T04:31:19;100760.89;;;9.50;72.39
74403;BME280;62837;51.082;13.744;2023-01-06T04:33:51;100758.20;;;9.48;72.13
74403;BME280;62837;51.082;13.744;2023-01-06T04:36:21;100752.67;;;9.46;72.13
74403;BME280;62837;51.082;13.744;2023-01-06T04:38:54;100746.10;;;9.44;72.01
74403;BME280;62837;51.082;13.744;2023-01-06T04:41:25;100743.88;;;9.43;71.93
74403;BME280;62837;51.082;13.744;2023-01-06T04:43:56;100737.70;;;9.40;71.94
74403;BME280;62837;51.082;13.744;2023-01-06T04:46:26;100737.59;;;9.39;72.06
74403;BME280;62837;51.082;13.744;2023-01-06T04:48:57;100737.17;;;9.38;72.13
74403;BME280;62837;51.082;13.744;2023-01-06T04:51:28;100735.96;;;9.37;72.27
74403;BME280;62837;51.082;13.744;2023-01-06T04:53:58;100735.80;;;9.37;72.16
74403;BME280;62837;51.082;13.744;2023-01-06T04:56:29;100734.12;;;9.35;72.05
74403;BME280;62837;51.082;13.744;2023-01-06T04:59:00;100731.81;;;9.35;72.17
74403;BME280;62837;51.082;13.744;2023-01-06T05:01:30;100737.48;;;9.36;72.20
74403;BME280;62837;51.082;13.744;2023-01-06T05:04:01;100735.89;;;9.39;72.48
74403;BME280;62837;51.082;13.744;2023-01-06T05:06:32;100733.97;;;9.42;72.37
74403;BME280;62837;51.082;13.744;2023-01-06T05:09:03;100730.20;;;9.43;72.30
74403;BME280;62837;51.082;13.744;2023-01-06T05:11:33;100725.35;;;9.42;71.95
74403;BME280;62837;51.082;13.744;2023-01-06T05:14:04;100724.48;;;9.41;72.39
74403;BME280;62837;51.082;13.744;2023-01-06T05:16:35;100718.36;;;9.43;72.27
74403;BME280;62837;51.082;13.744;2023-01-06T05:19:06;100720.01;;;9.43;72.03
74403;BME280;62837;51.082;13.744;2023-01-06T05:21:37;100719.79;;;9.43;72.29
74403;BME280;62837;51.082;13.744;2023-01-06T05:24:09;100718.74;;;9.46;72.29
74403;BME280;62837;51.082;13.744;2023-01-06T05:26:40;100716.41;;;9.44;72.21
74403;BME280;62837;51.082;13.744;2023-01-06T05:29:13;100717.81;;;9.40;72.20
74403;BME280;62837;51.082;13.744;2023-01-06T05:31:45;100717.25;;;9.38;72.33
74403;BME280;62837;51.082;13.744;2023-01-06T05:34:16;100714.83;;;9.39;72.61
74403;BME280;62837;51.082;13.744;2023-01-06T05:36:47;100718.88;;;9.42;72.62
74403;BME280;62837;51.082;13.744;2023-01-06T05:39:18;100716.98;;;9.43;72.46
74403;BME280;62837;51.082;13.744;2023-01-06T05:41:49;100713.11;;;9.44;72.62
74403;BME280;62837;51.082;13.744;2023-01-06T05:44:19;100710.61;;;9.45;72.74
74403;BME280;62837;51.082;13.744;2023-01-06T05:46:50;100709.20;;;9.47;72.89
74403;BME280;62837;51.082;13.744;2023-01-06T05:49:21;100703.72;;;9.49;72.95
74403;BME280;62837;51.082;13.744;2023-01-06T05:51:51;100699.75;;;9.49;72.95
74403;BME280;62837;51.082;13.744;2023-01-06T05:54:22;100701.35;;;9.49;72.98
74403;BME280;62837;51.082;13.744;2023-01-06T05:56:53;100699.80;;;9.48;73.18
74403;BME280;62837;51.082;13.744;2023-01-06T05:59:23;100693.68;;;9.44;73.07
74403;BME280;62837;51.082;13.744;2023-01-06T06:01:55;100691.30;;;9.43;73.49
74403;BME280;62837;51.082;13.744;2023-01-06T06:04:25;100693.83;;;9.43;73.49
74403;BME280;62837;51.082;13.744;2023-01-06T06:06:56;100691.09;;;9.43;73.47
74403;BME280;62837;51.082;13.744;2023-01-06T06:09:27;100692.52;;;9.43;73.87
74403;BME280;62837;51.082;13.744;2023-01-06T06:11:57;100692.92;;;9.48;73.95
74403;BME280;62837;51.082;13.744;2023-01-06T06:14:28;100692.21;;;9.50;73.79
74403;BME280;62837;51.082;13.744;2023-01-06T06:16:59;100688.87;;;9.50;73.77
74403;BME280;62837;51.082;13.744;2023-01-06T06:19:30;100691.52;;;9.51;74.19
74403;BME280;62837;51.082;13.744;2023-01-06T06:22:01;100687.99;;;9.54;75.38
74403;BME280;62837;51.082;13.744;2023-01-06T06:24:31;100684.14;;;9.57;76.13
74403;BME280;62837;51.082;13.744;2023-01-06T06:27:02;100686.05;;;9.63;76.59
74403;BME280;62837;51.082;13.744;2023-01-06T06:29:33;100683.52;;;9.65;75.27
74403;BME280;62837;51.082;13.744;2023-01-06T06:32:04;100686.88;;;9.58;74.68
74403;BME280;62837;51.082;13.744;2023-01-06T06:34:34;100687.91;;;9.47;74.57
74403;BME280;62837;51.082;13.744;2023-01-06T06:37:05;100685.92;;;9.36;74.59
74403;BME280;62837;51.082;13.744;2023-01-06T06:39:36;100684.98;;;9.25;75.01
74403;BME280;62837;51.082;13.744;2023-01-06T06:42:07;100684.66;;;9.12;74.88
74403;BME280;62837;51.082;13.744;2023-01-06T06:44:38;100687.55;;;9.02;75.07
74403;BME280;62837;51.082;13.744;2023-01-06T06:47:09;100684.30;;;8.94;75.23
74403;BME280;62837;51.082;13.744;2023-01-06T06:49:40;100686.23;;;8.87;75.56
74403;BME280;62837;51.082;13.744;2023-01-06T06:52:11;100680.73;;;8.80;75.73
74403;BME280;62837;51.082;13.744;2023-01-06T06:54:42;100677.77;;;8.72;76.03
74403;BME280;62837;51.082;13.744;2023-01-06T06:57:13;100672.55;;;8.67;76.08
74403;BME280;62837;51.082;13.744;2023-01-06T06:59:44;100668.89;;;8.62;76.15
74403;BME280;62837;51.082;13.744;2023-01-06T07:02:14;100671.08;;;8.60;76.36
74403;BME280;62837;51.082;13.744;2023-01-06T07:04:46;100671.52;;;8.58;76.63
74403;BME280;62837;51.082;13.744;2023-01-06T07:07:16;100674.89;;;8.57;76.64
74403;BME280;62837;51.082;13.744;2023-01-06T07:09:48;100671.09;;;8.55;76.70
74403;BME280;62837;51.082;13.744;2023-01-06T07:12:18;100670.98;;;8.54;76.87
74403;BME280;62837;51.082;13.744;2023-01-06T07:14:49;100674.50;;;8.52;77.06
74403;BME280;62837;51.082;13.744;2023-01-06T07:17:20;100673.73;;;8.51;77.08
74403;BME280;62837;51.082;13.744;2023-01-06T07:19:54;100672.68;;;8.51;77.33
74403;BME280;62837;51.082;13.744;2023-01-06T07:22:25;100675.27;;;8.51;77.34
74403;BME280;62837;51.082;13.744;2023-01-06T07:24:56;100668.88;;;8.50;77.65
74403;BME280;62837;51.082;13.744;2023-01-06T07:27:27;100671.02;;;8.50;77.71
74403;BME280;62837;51.082;13.744;2023-01-06T07:29:57;100672.48;;;8.50;77.79
74403;BME280;62837;51.082;13.744;2023-01-06T07:32:28;100668.63;;;8.49;78.09
74403;BME280;62837;51.082;13.744;2023-01-06T07:34:58;100668.24;;;8.49;78.09
74403;BME280;62837;51.082;13.744;2023-01-06T07:37:29;100660.27;;;8.50;78.28
74403;BME280;62837;51.082;13.744;2023-01-06T07:40:00;100650.31;;;8.50;78.43
74403;BME280;62837;51.082;13.744;2023-01-06T07:42:31;100648.23;;;8.51;78.39
74403;BME280;62837;51.082;13.744;2023-01-06T07:45:01;100645.83;;;8.51;78.63
74403;BME280;62837;51.082;13.744;2023-01-06T07:47:32;100641.82;;;8.51;78.65
74403;BME280;62837;51.082;13.744;2023-01-06T07:50:04;100642.72;;;8.52;78.51
74403;BME280;62837;51.082;13.744;2023-01-06T07:52:35;100637.29;;;8.54;78.53
74403;BME280;62837;51.082;13.744;2023-01-06T07:55:07;100634.64;;;8.56;78.66
74403;BME280;62837;51.082;13.744;2023-01-06T07:57:38;100634.17;;;8.57;78.65
74403;BME280;62837;51.082;13.744;2023-01-06T08:00:11;100631.89;;;8.58;78.67
74403;BME280;62837;51.082;13.744;2023-01-06T08:02:42;100633.52;;;8.59;78.67
74403;BME280;62837;51.082;13.744;2023-01-06T08:05:12;100633.70;;;8.61;78.72
74403;BME280;62837;51.082;13.744;2023-01-06T08:07:43;100626.38;;;8.61;78.69
74403;BME280;62837;51.082;13.744;2023-01-06T08:10:14;100630.60;;;8.62;79.03
74403;BME280;62837;51.082;13.744;2023-01-06T08:12:45;100632.21;;;8.63;78.68
74403;BME280;62837;51.082;13.744;2023-01-06T08:15:16;100630.29;;;8.62;79.21
74403;BME280;62837;51.082;13.744;2023-01-06T08:17:46;100639.08;;;8.63;78.99
74403;BME280;62837;51.082;13.744;2023-01-06T08:20:21;100639.16;;;8.64;79.43
74403;BME280;62837;51.082;13.744;2023-01-06T08:22:52;100641.54;;;8.63;79.38
74403;BME280;62837;51.082;13.744;2023-01-06T08:25:22;100640.91;;;8.62;79.55
74403;BME280;62837;51.082;13.744;2023-01-06T08:27:53;100637.63;;;8.62;79.73
74403;BME280;62837;51.082;13.744;2023-01-06T08:30:24;100630.20;;;8.66;79.47
74403;BME280;62837;51.082;13.744;2023-01-06T08:32:58;100624.92;;;8.70;79.63
74403;BME280;62837;51.082;13.744;2023-01-06T08:35:29;100619.45;;;8.73;79.58
74403;BME280;62837;51.082;13.744;2023-01-06T08:37:59;100618.11;;;8.77;79.45
74403;BME280;62837;51.082;13.744;2023-01-06T08:40:30;100612.95;;;8.82;79.66
74403;BME280;62837;51.082;13.744;2023-01-06T08:43:01;100615.73;;;8.86;79.68
74403;BME280;62837;51.082;13.744;2023-01-06T08:45:31;100613.23;;;8.93;79.61
74403;BME280;62837;51.082;13.744;2023-01-06T08:48:02;100610.73;;;9.07;79.55
74403;BME280;62837;51.082;13.744;2023-01-06T08:50:33;100613.29;;;9.31;79.09
74403;BME280;62837;51.082;13.744;2023-01-06T08:53:04;100624.32;;;9.51;79.19
74403;BME280;62837;51.082;13.744;2023-01-06T08:55:36;100627.47;;;9.68;78.84
74403;BME280;62837;51.082;13.744;2023-01-06T08:58:07;100625.27;;;9.87;78.52
74403;BME280;62837;51.082;13.744;2023-01-06T09:00:40;100629.71;;;10.02;78.31
74403;BME280;62837;51.082;13.744;2023-01-06T09:03:11;100631.45;;;10.04;78.07
74403;BME280;62837;51.082;13.744;2023-01-06T09:05:42;100635.39;;;10.07;78.47
74403;BME280;62837;51.082;13.744;2023-01-06T09:08:12;100630.65;;;10.09;78.07
74403;BME280;62837;51.082;13.744;2023-01-06T09:10:43;100621.52;;;10.12;78.04
74403;BME280;62837;51.082;13.744;2023-01-06T09:13:14;100618.31;;;10.14;77.88
74403;BME280;62837;51.082;13.744;2023-01-06T09:15:45;100618.71;;;10.15;77.84
74403;BME280;62837;51.082;13.744;2023-01-06T09:18:17;100618.21;;;10.17;77.90
74403;BME280;62837;51.082;13.744;2023-01-06T09:20:48;100626.64;;;10.18;77.69
74403;BME280;62837;51.082;13.744;2023-01-06T09:23:18;100626.16;;;10.18;77.80
74403;BME280;62837;51.082;13.744;2023-01-06T09:25:50;100633.05;;;10.19;77.75
74403;BME280;62837;51.082;13.744;2023-01-06T09:28:21;100634.77;;;10.20;77.81
74403;BME280;62837;51.082;13.744;2023-01-06T09:30:52;100638.61;;;10.20;77.74
74403;BME280;62837;51.082;13.744;2023-01-06T09:33:22;100635.23;;;10.16;77.75
74403;BME280;62837;51.082;13.744;2023-01-06T09:35:55;100634.81;;;10.15;77.81
74403;BME280;62837;51.082;13.744;2023-01-06T09:38:26;100634.77;;;10.15;77.94
74403;BME280;62837;51.082;13.744;2023-01-06T09:41:08;100630.38;;;10.15;77.87
74403;BME280;62837;51.082;13.744;2023-01-06T09:43:47;100626.06;;;10.16;77.96
74403;BME280;62837;51.082;13.744;2023-01-06T09:46:22;100624.07;;;10.15;78.08
74403;BME280;62837;51.082;13.744;2023-01-06T09:49:00;100622.08;;;10.15;78.07
74403;BME280;62837;51.082;13.744;2023-01-06T09:51:35;100620.63;;;10.14;78.14
74403;BME280;62837;51.082;13.744;2023-01-06T09:54:15;100618.24;;;10.10;78.25
74403;BME280;62837;51.082;13.744;2023-01-06T09:56:52;100613.86;;;10.07;78.41
74403;BME280;62837;51.082;13.744;2023-01-06T09:59:28;100601.84;;;10.08;78.48
74403;BME280;62837;51.082;13.744;2023-01-06T10:02:01;100599.15;;;10.11;78.58
74403;BME280;62837;51.082;13.744;2023-01-06T10:04:32;100603.55;;;10.12;78.59
74403;BME280;62837;51.082;13.744;2023-01-06T10:07:12;100593.70;;;10.14;78.42
74403;BME280;62837;51.082;13.744;2023-01-06T10:09:55;100587.86;;;10.18;78.53
74403;BME280;62837;51.082;13.744;2023-01-06T10:12:31;100589.88;;;10.21;78.67
74403;BME280;62837;51.082;13.744;2023-01-06T10:15:16;100581.35;;;10.20;78.59
74403;BME280;62837;51.082;13.744;2023-01-06T10:18:07;100582.23;;;10.25;78.82
74403;BME280;62837;51.082;13.744;2023-01-06T10:20:44;100574.86;;;10.31;78.67
74403;BME280;62837;51.082;13.744;2023-01-06T10:23:40;100570.40;;;10.34;78.73
74403;BME280;62837;51.082;13.744;2023-01-06T10:26:18;100568.42;;;10.39;78.34
74403;BME280;62837;51.082;13.744;2023-01-06T10:28:52;100565.44;;;10.42;78.42
74403;BME280;62837;51.082;13.744;2023-01-06T10:31:29;100566.75;;;10.45;78.15
74403;BME280;62837;51.082;13.744;2023-01-06T10:34:03;100566.04;;;10.49;78.16
74403;BME280;62837;51.082;13.744;2023-01-06T10:36:39;100560.52;;;10.53;77.86
74403;BME280;62837;51.082;13.744;2023-01-06T10:39:14;100557.98;;;10.56;77.93
74403;BME280;62837;51.082;13.744;2023-01-06T10:41:52;100554.60;;;10.57;77.97
74403;BME280;62837;51.082;13.744;2023-01-06T10:44:46;100542.92;;;10.59;77.96
74403;BME280;62837;51.082;13.744;2023-01-06T10:47:26;100539.09;;;10.61;77.87
74403;BME280;62837;51.082;13.744;2023-01-06T10:49:58;100537.67;;;10.62;78.02
74403;BME280;62837;51.082;13.744;2023-01-06T10:52:30;100533.70;;;10.62;77.84
74403;BME280;62837;51.082;13.744;2023-01-06T10:55:03;100534.48;;;10.62;77.78
74403;BME280;62837;51.082;13.744;2023-01-06T10:57:37;100527.67;;;10.63;77.82
74403;BME280;62837;51.082;13.744;2023-01-06T11:00:13;100523.01;;;10.63;77.83
74403;BME280;62837;51.082;13.744;2023-01-06T11:02:46;100516.45;;;10.65;77.91
74403;BME280;62837;51.082;13.744;2023-01-06T11:05:19;100508.80;;;10.67;77.91
74403;BME280;62837;51.082;13.744;2023-01-06T11:07:54;100508.30;;;10.68;77.81
74403;BME280;62837;51.082;13.744;2023-01-06T11:10:30;100512.18;;;10.69;77.81
74403;BME280;62837;51.082;13.744;2023-01-06T11:13:05;100516.88;;;10.70;77.69
74403;BME280;62837;51.082;13.744;2023-01-06T11:15:39;100514.95;;;10.71;77.73
74403;BME280;62837;51.082;13.744;2023-01-06T11:18:21;100508.66;;;10.73;77.83
74403;BME280;62837;51.082;13.744;2023-01-06T11:21:11;100507.48;;;10.76;77.96
74403;BME280;62837;51.082;13.744;2023-01-06T11:23:44;100510.32;;;10.78;77.84
74403;BME280;62837;51.082;13.744;2023-01-06T11:26:18;100509.41;;;10.81;77.77
74403;BME280;62837;51.082;13.744;2023-01-06T11:28:52;100498.21;;;10.83;77.86
74403;BME280;62837;51.082;13.744;2023-01-06T11:31:24;100494.33;;;10.85;77.84
74403;BME280;62837;51.082;13.744;2023-01-06T11:33:54;100489.00;;;10.87;77.90
74403;BME280;62837;51.082;13.744;2023-01-06T11:36:28;100486.46;;;10.85;77.89
74403;BME280;62837;51.082;13.744;2023-01-06T11:39:02;100495.32;;;10.85;77.88
74403;BME280;62837;51.082;13.744;2023-01-06T11:41:36;100505.88;;;10.85;77.77
74403;BME280;62837;51.082;13.744;2023-01-06T11:44:12;100505.93;;;10.84;77.89
74403;BME280;62837;51.082;13.744;2023-01-06T11:46:49;100497.64;;;10.82;77.78
74403;BME280;62837;51.082;13.744;2023-01-06T11:49:27;100502.48;;;10.83;77.28
74403;BME280;62837;51.082;13.744;2023-01-06T11:52:06;100503.17;;;10.84;77.03
74403;BME280;62837;51.082;13.744;2023-01-06T11:54:57;100501.92;;;10.86;77.19
74403;BME280;62837;51.082;13.744;2023-01-06T11:57:34;100500.59;;;10.89;77.31
74403;BME280;62837;51.082;13.744;2023-01-06T12:00:32;100504.23;;;10.91;77.14
74403;BME280;62837;51.082;13.744;2023-01-06T12:03:10;100505.95;;;10.93;76.60
74403;BME280;62837;51.082;13.744;2023-01-06T12:05:49;100507.41;;;10.94;76.50
74403;BME280;62837;51.082;13.744;2023-01-06T12:08:24;100511.81;;;10.94;76.67
74403;BME280;62837;51.082;13.744;2023-01-06T12:11:01;100515.96;;;10.92;76.78
74403;BME280;62837;51.082;13.744;2023-01-06T12:13:32;100521.24;;;10.87;77.08
74403;BME280;62837;51.082;13.744;2023-01-06T12:16:25;100526.71;;;10.79;77.82
74403;BME280;62837;51.082;13.744;2023-01-06T12:19:01;100526.75;;;10.68;77.94
74403;BME280;62837;51.082;13.744;2023-01-06T12:21:35;100527.56;;;10.59;78.20
74403;BME280;62837;51.082;13.744;2023-01-06T12:24:09;100532.30;;;10.51;78.32
74403;BME280;62837;51.082;13.744;2023-01-06T12:26:43;100525.89;;;10.44;78.52
74403;BME280;62837;51.082;13.744;2023-01-06T12:29:17;100528.47;;;10.40;78.68
74403;BME280;62837;51.082;13.744;2023-01-06T12:31:56;100527.28;;;10.37;78.70
74403;BME280;62837;51.082;13.744;2023-01-06T12:34:32;100524.08;;;10.35;78.87
74403;BME280;62837;51.082;13.744;2023-01-06T12:37:12;100519.33;;;10.34;78.66
74403;BME280;62837;51.082;13.744;2023-01-06T12:39:52;100514.14;;;10.33;78.63
74403;BME280;62837;51.082;13.744;2023-01-06T12:42:28;100512.55;;;10.33;78.40
74403;BME280;62837;51.082;13.744;2023-01-06T12:45:03;100507.59;;;10.33;78.23
74403;BME280;62837;51.082;13.744;2023-01-06T12:47:43;100513.30;;;10.35;77.79
74403;BME280;62837;51.082;13.744;2023-01-06T12:50:19;100512.63;;;10.35;76.81
74403;BME280;62837;51.082;13.744;2023-01-06T12:52:58;100521.77;;;10.40;76.59
74403;BME280;62837;51.082;13.744;2023-01-06T12:55:46;100520.42;;;10.43;76.61
74403;BME280;62837;51.082;13.744;2023-01-06T12:58:25;100507.11;;;10.41;76.30
74403;BME280;62837;51.082;13.744;2023-01-06T13:01:01;100521.08;;;10.47;76.35
74403;BME280;62837;51.082;13.744;2023-01-06T13:03:51;100520.39;;;10.48;76.25
74403;BME280;62837;51.082;13.744;2023-01-06T13:06:33;100514.88;;;10.51;75.69
74403;BME280;62837;51.082;13.744;2023-01-06T13:09:11;100510.59;;;10.52;75.68
74403;BME280;62837;51.082;13.744;2023-01-06T13:11:52;100512.48;;;10.54;75.64
74403;BME280;62837;51.082;13.744;2023-01-06T13:14:31;100517.63;;;10.56;75.25
74403;BME280;62837;51.082;13.744;2023-01-06T13:17:11;100522.08;;;10.59;74.90
74403;BME280;62837;51.082;13.744;2023-01-06T13:19:48;100515.00;;;10.62;74.51
74403;BME280;62837;51.082;13.744;2023-01-06T13:22:25;100508.73;;;10.64;73.54
74403;BME280;62837;51.082;13.744;2023-01-06T13:25:21;100487.73;;;10.67;73.48
74403;BME280;62837;51.082;13.744;2023-01-06T13:28:02;100481.84;;;10.69;72.65